Time;durP1;ratioP1;P1;durP2;ratioP2;P2;SDS_P1;SDS_P2;PMS_P1;PMS_P2;Temp;Humidity;BMP_temperature;BMP_pressure;BME280_temperature;BME280_humidity;BME280_pressure;Samples;Min_cycle;Max_cycle;Signal;HPM_P1;HPM_P2
2022/03/28 00:01:51;;;;;;;16.53;10.40;;;6.70;99.90;;;;;;4995330;28;20156;-81
2022/03/28 00:04:16;;;;;;;13.63;9.57;;;6.70;99.90;;;;;;4995366;28;20186;-80
2022/03/28 00:06:42;;;;;;;13.63;10.07;;;6.70;99.90;;;;;;4995390;28;20607;-80
2022/03/28 00:09:08;;;;;;;15.53;10.40;;;6.60;99.90;;;;;;4993976;28;20546;-80
2022/03/28 00:11:34;;;;;;;19.10;10.63;;;6.60;99.90;;;;;;4994957;28;20180;-81
2022/03/28 00:14:00;;;;;;;19.37;11.10;;;6.60;99.90;;;;;;4995350;28;20624;-80
2022/03/28 00:16:26;;;;;;;14.90;9.70;;;6.60;99.90;;;;;;4995348;28;20226;-80
2022/03/28 00:18:52;;;;;;;16.90;10.40;;;6.50;99.90;;;;;;4994759;28;20314;-81
2022/03/28 00:21:17;;;;;;;14.23;9.03;;;6.50;99.90;;;;;;4993950;28;20184;-80
2022/03/28 00:23:43;;;;;;;13.00;8.83;;;6.50;99.90;;;;;;4993953;28;20262;-81
2022/03/28 00:26:09;;;;;;;16.57;9.73;;;6.40;99.90;;;;;;4993623;28;20611;-80
2022/03/28 00:28:35;;;;;;;15.37;9.63;;;6.40;99.90;;;;;;4993450;28;20585;-80
2022/03/28 00:31:00;;;;;;;16.37;10.23;;;6.30;99.90;;;;;;4995000;28;20188;-80
2022/03/28 00:33:26;;;;;;;17.40;10.30;;;6.30;99.90;;;;;;4995214;28;20230;-81
2022/03/28 00:35:51;;;;;;;21.13;10.03;;;6.40;99.90;;;;;;4995005;28;20176;-79
2022/03/28 00:38:17;;;;;;;19.77;11.37;;;6.40;99.90;;;;;;4995134;28;20204;-80
2022/03/28 00:40:43;;;;;;;14.93;10.43;;;6.40;99.90;;;;;;4994986;28;20203;-80
2022/03/28 00:43:09;;;;;;;19.30;11.00;;;6.30;99.90;;;;;;4995372;28;20270;-80
2022/03/28 00:45:38;;;;;;;16.10;10.20;;;6.30;99.90;;;;;;4998949;28;20176;-80
2022/03/28 00:48:04;;;;;;;19.70;10.70;;;6.20;99.90;;;;;;4999013;28;20220;-80
2022/03/28 00:50:30;;;;;;;17.17;10.33;;;6.20;99.90;;;;;;4999338;28;20531;-80
2022/03/28 00:52:57;;;;;;;20.40;11.07;;;6.20;99.90;;;;;;4998769;28;20607;-80
2022/03/28 00:55:23;;;;;;;19.07;11.10;;;6.20;99.90;;;;;;4998818;28;20183;-80
2022/03/28 00:57:49;;;;;;;15.00;10.13;;;6.10;99.90;;;;;;4998538;28;20190;-80
2022/03/28 01:00:15;;;;;;;16.30;10.43;;;6.10;99.90;;;;;;4998748;28;20521;-80
2022/03/28 01:02:41;;;;;;;14.93;9.77;;;6.10;99.90;;;;;;4997486;28;20226;-80
2022/03/28 01:05:07;;;;;;;19.30;10.97;;;6.10;99.90;;;;;;4998682;28;20242;-80
2022/03/28 01:07:33;;;;;;;16.17;10.63;;;6.10;99.90;;;;;;4998445;28;20278;-80
2022/03/28 01:09:59;;;;;;;22.57;11.17;;;6.00;99.90;;;;;;4998789;28;20259;-80
2022/03/28 01:12:32;;;;;;;17.53;10.80;;;6.00;99.90;;;;;;4998362;28;20258;-80
2022/03/28 01:14:58;;;;;;;20.13;10.73;;;5.90;99.90;;;;;;4997348;28;20539;-80
2022/03/28 01:20:10;;;;;;;17.13;10.67;;;5.90;99.90;;;;;;4998729;28;20207;-81
2022/03/28 01:22:36;;;;;;;19.73;11.13;;;5.90;99.90;;;;;;4997049;28;20181;-81
2022/03/28 01:25:04;;;;;;;20.63;11.27;;;5.90;99.90;;;;;;4998266;28;20172;-80
2022/03/28 01:27:30;;;;;;;20.07;12.43;;;5.80;99.90;;;;;;4997700;28;20259;-80
2022/03/28 01:29:56;;;;;;;22.27;12.50;;;5.80;99.90;;;;;;4998220;28;20179;-81
2022/03/28 01:32:22;;;;;;;22.20;12.67;;;5.80;99.90;;;;;;4998189;28;20160;-80
2022/03/28 01:34:48;;;;;;;22.83;12.33;;;5.80;99.90;;;;;;4996850;28;20180;-80
2022/03/28 01:37:13;;;;;;;22.43;12.63;;;5.80;99.90;;;;;;4998060;28;20175;-80
2022/03/28 01:39:39;;;;;;;23.53;12.87;;;5.90;99.90;;;;;;4996765;28;20532;-80
2022/03/28 01:42:05;;;;;;;23.33;12.63;;;5.80;99.90;;;;;;4997565;28;20175;-80
2022/03/28 01:44:31;;;;;;;23.93;13.33;;;5.90;99.90;;;;;;4998098;28;20614;-80
2022/03/28 01:46:57;;;;;;;22.43;13.57;;;5.80;99.90;;;;;;4997990;28;20599;-80
2022/03/28 01:49:22;;;;;;;23.07;12.87;;;5.80;99.90;;;;;;4997723;28;20215;-80
2022/03/28 01:51:49;;;;;;;20.87;12.63;;;5.80;99.90;;;;;;4997943;28;20633;-80
2022/03/28 01:54:16;;;;;;;25.30;12.90;;;5.70;99.90;;;;;;4995557;28;20172;-79
2022/03/28 01:56:42;;;;;;;20.90;12.30;;;5.80;99.90;;;;;;4997362;28;20248;-80
2022/03/28 01:59:09;;;;;;;25.50;13.40;;;5.70;99.90;;;;;;4997638;28;20242;-80
2022/03/28 02:01:36;;;;;;;23.27;12.90;;;5.80;99.90;;;;;;4997692;28;20186;-80
2022/03/28 02:04:01;;;;;;;21.97;13.03;;;5.80;99.90;;;;;;4997526;28;20218;-80
2022/03/28 02:06:28;;;;;;;21.10;12.37;;;5.80;99.90;;;;;;4997603;28;20262;-80
2022/03/28 02:08:54;;;;;;;27.40;14.17;;;5.90;99.90;;;;;;4996010;28;20535;-80
2022/03/28 02:11:20;;;;;;;22.40;13.73;;;5.90;99.90;;;;;;4997307;28;20176;-80
2022/03/28 02:13:45;;;;;;;24.17;13.40;;;5.90;99.90;;;;;;4997328;28;20179;-80
2022/03/28 02:16:12;;;;;;;22.33;13.47;;;5.80;99.90;;;;;;4997473;28;20183;-80
2022/03/28 02:18:40;;;;;;;23.50;13.93;;;5.70;99.90;;;;;;4997091;28;20310;-80
2022/03/28 02:21:06;;;;;;;24.37;14.23;;;5.70;99.90;;;;;;4997294;28;20521;-80
2022/03/28 02:23:32;;;;;;;25.63;13.43;;;5.70;99.90;;;;;;4997110;28;20167;-80
2022/03/28 02:25:58;;;;;;;26.30;14.37;;;5.70;99.90;;;;;;4996944;28;20184;-80
2022/03/28 02:28:24;;;;;;;24.03;13.50;;;5.70;99.90;;;;;;4996865;28;20238;-80
2022/03/28 02:30:50;;;;;;;27.93;13.27;;;5.60;99.90;;;;;;4995848;28;20267;-80
2022/03/28 02:33:16;;;;;;;25.37;14.23;;;5.60;99.90;;;;;;4997018;28;20557;-80
2022/03/28 02:35:43;;;;;;;26.63;14.70;;;5.60;99.90;;;;;;4997080;28;20172;-80
2022/03/28 02:38:09;;;;;;;24.87;14.60;;;5.60;99.90;;;;;;4995623;28;20215;-79
2022/03/28 02:40:36;;;;;;;28.20;13.90;;;5.60;99.90;;;;;;4996800;28;20188;-80
2022/03/28 02:43:02;;;;;;;23.97;14.20;;;5.50;99.90;;;;;;4996596;28;20172;-79
2022/03/28 02:45:33;;;;;;;24.97;14.47;;;5.60;99.90;;;;;;4997065;28;20180;-80
2022/03/28 02:47:59;;;;;;;20.43;13.43;;;5.50;99.90;;;;;;4996904;28;20207;-80
2022/03/28 02:50:29;;;;;;;27.23;14.00;;;5.40;99.90;;;;;;4995307;28;20307;-80
2022/03/28 02:52:55;;;;;;;31.37;16.00;;;5.30;99.90;;;;;;4995254;28;20259;-80
2022/03/28 02:55:21;;;;;;;31.67;16.77;;;5.30;99.90;;;;;;4996624;28;20754;-81
2022/03/28 02:57:47;;;;;;;25.93;15.33;;;5.30;99.90;;;;;;4996345;28;20180;-80
2022/03/28 03:00:13;;;;;;;32.20;16.07;;;5.30;99.90;;;;;;4996526;28;20187;-80
2022/03/28 03:02:39;;;;;;;27.47;14.87;;;5.40;99.90;;;;;;4995494;28;20227;-80
2022/03/28 03:05:06;;;;;;;25.97;15.27;;;5.30;99.90;;;;;;4996348;28;20244;-81
2022/03/28 03:07:32;;;;;;;27.27;14.93;;;5.30;99.90;;;;;;4996139;28;20176;-80
2022/03/28 03:09:58;;;;;;;34.07;16.03;;;5.30;99.90;;;;;;4996464;28;20238;-81
2022/03/28 03:12:24;;;;;;;30.00;16.70;;;5.30;99.90;;;;;;4994761;28;20195;-81
2022/03/28 03:14:51;;;;;;;28.90;15.50;;;5.20;99.90;;;;;;4996362;28;20223;-80
2022/03/28 03:17:17;;;;;;;33.17;15.93;;;5.30;99.90;;;;;;4996198;28;20234;-81
2022/03/28 03:19:44;;;;;;;29.20;15.30;;;5.20;99.90;;;;;;4995930;28;20285;-80
2022/03/28 03:22:11;;;;;;;25.60;15.87;;;5.20;99.90;;;;;;4996217;28;20270;-80
2022/03/28 03:24:37;;;;;;;26.33;15.30;;;5.20;99.90;;;;;;4996159;28;20203;-80
2022/03/28 03:27:03;;;;;;;23.03;13.60;;;5.10;99.90;;;;;;4995909;28;20219;-80
2022/03/28 03:29:28;;;;;;;27.83;16.00;;;5.10;99.90;;;;;;4994561;28;20216;-79
2022/03/28 03:31:54;;;;;;;26.53;15.60;;;5.00;99.90;;;;;;4995826;28;20184;-80
2022/03/28 03:34:20;;;;;;;31.20;15.73;;;5.10;99.90;;;;;;4995857;28;20176;-80
2022/03/28 03:36:46;;;;;;;27.60;15.17;;;5.10;99.90;;;;;;4994595;28;20184;-80
2022/03/28 03:39:11;;;;;;;26.87;15.03;;;5.10;99.90;;;;;;4995902;28;20507;-80
2022/03/28 03:41:37;;;;;;;28.97;15.37;;;5.10;99.90;;;;;;4994450;28;20184;-80
2022/03/28 03:44:03;;;;;;;30.17;16.33;;;5.10;99.90;;;;;;4994441;28;20164;-80
2022/03/28 03:46:29;;;;;;;27.03;15.70;;;5.10;99.90;;;;;;4994380;28;20230;-80
2022/03/28 03:48:55;;;;;;;20.50;13.37;;;5.10;99.90;;;;;;4995254;28;20243;-80
2022/03/28 03:51:20;;;;;;;23.93;13.23;;;5.00;99.90;;;;;;4995541;28;20189;-80
2022/03/28 03:53:46;;;;;;;23.27;13.67;;;4.90;99.90;;;;;;4995790;28;20246;-79
2022/03/28 03:56:12;;;;;;;23.20;13.13;;;4.90;99.90;;;;;;4995542;28;20172;-79
2022/03/28 03:58:37;;;;;;;17.33;10.27;;;4.80;99.90;;;;;;4994204;28;20175;-79
2022/03/28 04:01:04;;;;;;;20.03;12.30;;;4.80;99.90;;;;;;4995178;28;20172;-80
2022/03/28 04:03:29;;;;;;;23.33;12.27;;;4.70;99.90;;;;;;4995478;28;20176;-80
2022/03/28 04:05:55;;;;;;;25.13;14.50;;;4.70;99.90;;;;;;4995593;28;20223;-80
2022/03/28 04:08:20;;;;;;;25.83;14.37;;;4.60;99.90;;;;;;4995270;28;20211;-80
2022/03/28 04:10:46;;;;;;;27.40;14.57;;;4.60;99.90;;;;;;4995254;28;20250;-79
2022/03/28 04:13:13;;;;;;;34.23;16.17;;;4.60;99.90;;;;;;4995412;28;20545;-80
2022/03/28 04:15:39;;;;;;;33.20;17.73;;;4.60;99.90;;;;;;4993854;28;20287;-81
2022/03/28 04:18:05;;;;;;;30.13;15.90;;;4.50;99.90;;;;;;4994435;28;20224;-80
2022/03/28 04:20:32;;;;;;;35.60;17.53;;;4.50;99.90;;;;;;4995114;28;20172;-80
2022/03/28 04:22:58;;;;;;;26.67;14.40;;;4.50;99.90;;;;;;4995103;28;20174;-80
2022/03/28 04:25:27;;;;;;;59.00;19.80;;;4.50;99.90;;;;;;4995093;28;20168;-80
2022/03/28 04:27:53;;;;;;;70.43;19.70;;;4.50;99.90;;;;;;4994982;28;20329;-81
2022/03/28 04:30:19;;;;;;;51.17;17.37;;;4.50;99.90;;;;;;4995053;28;20274;-80
2022/03/28 04:32:44;;;;;;;65.37;17.57;;;4.40;99.90;;;;;;4994771;28;20255;-81
2022/03/28 04:35:12;;;;;;;37.93;17.00;;;4.30;99.90;;;;;;4994980;28;20168;-80
2022/03/28 04:37:40;;;;;;;42.43;18.93;;;4.20;99.90;;;;;;4994891;28;20179;-80
2022/03/28 04:40:09;;;;;;;39.70;18.00;;;4.30;99.90;;;;;;4995003;28;20171;-80
2022/03/28 04:42:35;;;;;;;38.50;17.20;;;4.40;99.90;;;;;;4994895;28;20263;-80
2022/03/28 04:45:01;;;;;;;32.50;14.57;;;4.50;99.90;;;;;;4994445;28;20183;-80
2022/03/28 04:47:27;;;;;;;42.10;14.13;;;4.60;99.90;;;;;;4994638;28;20311;-80
2022/03/28 04:49:52;;;;;;;28.20;13.47;;;4.60;99.90;;;;;;4994840;28;20211;-80
2022/03/28 04:52:18;;;;;;;23.27;12.80;;;4.70;99.90;;;;;;4994714;28;20174;-81
2022/03/28 04:54:44;;;;;;;39.90;11.30;;;4.70;99.90;;;;;;4994924;28;20483;-81
2022/03/28 04:57:09;;;;;;;66.00;11.60;;;4.70;99.90;;;;;;4994767;28;20168;-79
2022/03/28 04:59:35;;;;;;;22.47;9.90;;;4.60;99.90;;;;;;4994296;28;20175;-80
2022/03/28 05:02:01;;;;;;;27.57;11.13;;;4.50;99.90;;;;;;4994490;28;20186;-80
2022/03/28 05:04:27;;;;;;;42.43;11.03;;;4.40;99.90;;;;;;4994767;28;20247;-80
2022/03/28 05:06:53;;;;;;;28.43;9.97;;;4.30;99.90;;;;;;4994794;28;20172;-80
2022/03/28 05:09:18;;;;;;;15.27;10.30;;;4.20;99.90;;;;;;4994598;28;20212;-80
2022/03/28 05:11:44;;;;;;;16.37;9.93;;;4.10;99.90;;;;;;4994765;28;20175;-81
2022/03/28 05:14:11;;;;;;;20.17;10.83;;;4.20;99.90;;;;;;4994336;28;20510;-80
2022/03/28 05:16:37;;;;;;;26.03;9.93;;;4.30;99.90;;;;;;4994868;28;20176;-80
2022/03/28 05:19:03;;;;;;;14.27;8.77;;;4.30;99.90;;;;;;4994455;28;20608;-81
2022/03/28 05:21:29;;;;;;;16.17;8.50;;;4.30;99.90;;;;;;4993558;28;20686;-80
2022/03/28 05:23:55;;;;;;;16.00;8.53;;;4.30;99.90;;;;;;4993378;28;20179;-80
2022/03/28 05:26:20;;;;;;;24.43;8.53;;;4.30;99.90;;;;;;4994582;28;20182;-81
2022/03/28 05:28:47;;;;;;;27.33;7.83;;;4.20;99.90;;;;;;4991567;28;20227;-81
2022/03/28 05:31:13;;;;;;;13.23;7.67;;;4.20;99.90;;;;;;4997382;28;20179;-80
2022/03/28 05:33:38;;;;;;;29.40;9.00;;;4.10;99.90;;;;;;4998021;28;20172;-80
2022/03/28 05:36:05;;;;;;;27.50;8.40;;;4.00;99.90;;;;;;4996822;28;20183;-81
2022/03/28 05:38:31;;;;;;;29.20;8.03;;;3.90;99.90;;;;;;4997379;28;20184;-82
2022/03/28 05:40:57;;;;;;;56.87;9.77;;;3.90;99.90;;;;;;4998114;28;20611;-81
2022/03/28 05:43:24;;;;;;;30.77;8.77;;;3.90;99.90;;;;;;4997808;28;20180;-81
2022/03/28 05:45:52;;;;;;;31.07;8.60;;;3.80;99.90;;;;;;4997525;28;20180;-81
2022/03/28 05:48:18;;;;;;;26.33;8.27;;;3.90;99.90;;;;;;4997874;28;20208;-81
2022/03/28 05:50:45;;;;;;;14.40;8.30;;;3.90;99.90;;;;;;4997788;28;20263;-81
2022/03/28 05:53:13;;;;;;;24.13;7.90;;;3.90;99.90;;;;;;4997779;28;20204;-81
2022/03/28 05:55:40;;;;;;;9.50;7.03;;;3.90;99.90;;;;;;4997705;28;20495;-81
2022/03/28 05:58:07;;;;;;;23.80;7.73;;;3.80;99.90;;;;;;4997664;28;20574;-80
2022/03/28 06:00:32;;;;;;;40.83;7.60;;;3.80;99.90;;;;;;4997397;28;20626;-80
2022/03/28 06:02:58;;;;;;;33.73;7.47;;;3.70;99.90;;;;;;4996232;28;20179;-81
2022/03/28 06:05:24;;;;;;;41.27;7.83;;;3.70;99.90;;;;;;4996541;28;20279;-81
2022/03/28 06:07:50;;;;;;;37.90;7.60;;;3.60;99.90;;;;;;4997442;28;20582;-81
2022/03/28 06:10:16;;;;;;;29.47;8.23;;;3.60;99.90;;;;;;4996025;28;20186;-81
2022/03/28 06:12:43;;;;;;;33.27;7.53;;;3.70;99.90;;;;;;4995991;28;20203;-80
2022/03/28 06:15:09;;;;;;;143.93;10.67;;;3.70;99.90;;;;;;4997014;28;20188;-80
2022/03/28 06:17:34;;;;;;;49.37;8.40;;;3.60;99.90;;;;;;4997079;28;20177;-80
2022/03/28 06:20:03;;;;;;;63.93;8.73;;;3.60;99.90;;;;;;4996411;28;20184;-78
2022/03/28 06:22:29;;;;;;;112.10;10.23;;;3.60;99.90;;;;;;4997171;28;20256;-78
2022/03/28 06:24:55;;;;;;;19.23;8.57;;;3.60;99.90;;;;;;4997163;28;20596;-78
2022/03/28 06:27:23;;;;;;;20.43;7.87;;;3.50;99.90;;;;;;4995650;28;20187;-79
2022/03/28 06:29:50;;;;;;;147.43;8.80;;;3.50;99.90;;;;;;4996957;28;20227;-79
2022/03/28 06:32:16;;;;;;;124.53;9.63;;;3.50;99.90;;;;;;4997069;28;20168;-80
2022/03/28 06:34:42;;;;;;;31.60;7.77;;;3.40;99.90;;;;;;4996941;28;20645;-79
2022/03/28 06:37:07;;;;;;;29.27;7.53;;;3.30;99.90;;;;;;4997113;28;20201;-80
2022/03/28 06:39:34;;;;;;;56.40;8.77;;;3.30;99.90;;;;;;4995262;28;20621;-79
2022/03/28 06:42:00;;;;;;;75.30;8.40;;;3.40;99.90;;;;;;4996528;28;20557;-79
2022/03/28 06:44:26;;;;;;;106.63;8.70;;;3.40;99.90;;;;;;4996784;28;20524;-80
2022/03/28 06:46:51;;;;;;;49.10;8.13;;;3.50;99.90;;;;;;4996630;28;20180;-79
2022/03/28 06:49:17;;;;;;;17.43;7.63;;;3.40;99.90;;;;;;4996579;28;20209;-80
2022/03/28 06:51:42;;;;;;;20.43;8.03;;;3.50;99.90;;;;;;4995347;28;20627;-79
2022/03/28 06:54:08;;;;;;;17.63;8.30;;;3.60;99.90;;;;;;4996761;28;20565;-79
2022/03/28 06:56:35;;;;;;;44.30;7.73;;;3.70;99.90;;;;;;4996516;28;20170;-80
2022/03/28 06:59:01;;;;;;;69.37;10.37;;;3.80;99.90;;;;;;4996468;28;20276;-80
2022/03/28 07:01:27;;;;;;;12.93;6.93;;;3.80;99.90;;;;;;4996161;28;20199;-80
2022/03/28 07:03:54;;;;;;;16.30;5.80;;;3.80;99.90;;;;;;4996732;28;20274;-80
2022/03/28 07:06:20;;;;;;;30.93;6.67;;;3.80;99.90;;;;;;4996477;28;20249;-81
2022/03/28 07:08:47;;;;;;;96.90;9.13;;;3.80;99.90;;;;;;4996434;28;20261;-79
2022/03/28 07:11:13;;;;;;;31.03;7.50;;;3.60;99.90;;;;;;4996143;28;20198;-80
2022/03/28 07:13:39;;;;;;;25.10;6.17;;;3.60;99.90;;;;;;4996252;28;20182;-80
2022/03/28 07:16:04;;;;;;;29.23;6.67;;;3.60;99.90;;;;;;4996017;28;20512;-79
2022/03/28 07:18:30;;;;;;;12.90;6.47;;;3.60;99.90;;;;;;4994725;28;20224;-80
2022/03/28 07:20:56;;;;;;;12.93;6.17;;;3.60;99.90;;;;;;4995234;28;20194;-79
2022/03/28 07:23:22;;;;;;;19.80;7.83;;;3.60;99.90;;;;;;4996012;28;20178;-81
2022/03/28 07:25:48;;;;;;;9.13;6.63;;;3.70;99.90;;;;;;4994741;28;20187;-80
2022/03/28 07:28:14;;;;;;;13.10;6.57;;;3.80;99.90;;;;;;4995914;28;20206;-80
2022/03/28 07:30:41;;;;;;;31.00;6.37;;;3.90;99.90;;;;;;4994917;28;20187;-80
2022/03/28 07:33:07;;;;;;;9.77;6.33;;;3.90;99.90;;;;;;4996029;28;20208;-81
2022/03/28 07:35:35;;;;;;;14.33;6.83;;;3.90;99.90;;;;;;4995925;28;20168;-80
2022/03/28 07:38:02;;;;;;;9.30;6.67;;;4.00;99.90;;;;;;4995722;28;20249;-79
2022/03/28 07:40:28;;;;;;;9.60;6.53;;;4.00;99.90;;;;;;4995741;28;20224;-79
2022/03/28 07:42:54;;;;;;;12.87;7.07;;;4.00;99.90;;;;;;4994323;28;20180;-79
2022/03/28 07:45:23;;;;;;;11.07;8.23;;;4.00;99.90;;;;;;4994502;28;20573;-80
2022/03/28 07:47:49;;;;;;;11.20;7.30;;;4.00;99.90;;;;;;4995377;28;20181;-79
2022/03/28 07:50:14;;;;;;;7.63;6.40;;;4.20;99.90;;;;;;4994369;28;20183;-81
2022/03/28 07:52:40;;;;;;;10.63;6.87;;;4.20;99.90;;;;;;4994739;28;20187;-80
2022/03/28 07:55:07;;;;;;;9.70;6.80;;;4.30;99.90;;;;;;4994606;28;20189;-80
2022/03/28 07:57:35;;;;;;;7.87;6.73;;;4.20;99.90;;;;;;4995431;28;20174;-80
2022/03/28 08:00:04;;;;;;;14.20;7.10;;;4.30;99.90;;;;;;4995209;28;20270;-80
2022/03/28 08:02:29;;;;;;;8.27;6.30;;;4.30;99.90;;;;;;4995518;28;20269;-80
2022/03/28 08:04:55;;;;;;;8.80;6.10;;;4.30;99.90;;;;;;4995496;28;20254;-80
2022/03/28 08:07:21;;;;;;;7.70;5.90;;;4.40;99.90;;;;;;4995139;28;20266;-80
2022/03/28 08:09:47;;;;;;;7.57;5.57;;;4.50;99.90;;;;;;4995259;28;20762;-80
2022/03/28 08:12:13;;;;;;;5.93;5.13;;;4.50;99.90;;;;;;4995217;28;20259;-80
2022/03/28 08:14:39;;;;;;;7.07;4.77;;;4.70;99.90;;;;;;4995159;28;20187;-80
2022/03/28 08:17:05;;;;;;;12.70;4.70;;;4.80;99.90;;;;;;4994989;28;20179;-80
2022/03/28 08:19:31;;;;;;;7.70;5.10;;;5.00;99.90;;;;;;4995290;28;20231;-80
2022/03/28 08:21:57;;;;;;;4.93;4.40;;;5.10;99.90;;;;;;4993803;28;20693;-80
2022/03/28 08:24:22;;;;;;;4.23;3.83;;;5.00;99.90;;;;;;4995280;28;20176;-79
2022/03/28 08:26:51;;;;;;;5.10;3.70;;;5.00;99.90;;;;;;4993941;28;20182;-79
2022/03/28 08:29:17;;;;;;;5.63;3.97;;;5.00;99.90;;;;;;4994986;28;20217;-79
2022/03/28 08:31:42;;;;;;;4.13;3.67;;;5.10;99.90;;;;;;4994554;28;20246;-79
2022/03/28 08:34:09;;;;;;;4.30;3.87;;;5.20;99.90;;;;;;4995222;28;20235;-80
2022/03/28 08:36:35;;;;;;;4.70;3.90;;;5.10;99.90;;;;;;4993660;28;20645;-80
2022/03/28 08:39:01;;;;;;;5.53;3.53;;;5.10;99.90;;;;;;4994887;28;20208;-80
2022/03/28 08:41:27;;;;;;;5.30;3.70;;;5.10;99.90;;;;;;4994895;28;20183;-80
2022/03/28 08:43:53;;;;;;;4.43;3.50;;;5.30;99.90;;;;;;4994988;28;20168;-79
2022/03/28 08:46:19;;;;;;;4.83;3.80;;;5.40;99.90;;;;;;4994551;28;20618;-79
2022/03/28 08:48:46;;;;;;;5.43;3.80;;;5.40;99.90;;;;;;4994778;28;20219;-79
2022/03/28 08:51:13;;;;;;;5.87;3.90;;;5.40;99.90;;;;;;4993644;28;20191;-80
2022/03/28 08:53:41;;;;;;;5.97;4.00;;;5.60;99.90;;;;;;4994971;28;20203;-80
2022/03/28 08:56:09;;;;;;;6.83;3.70;;;5.60;99.90;;;;;;4994816;28;20298;-80
2022/03/28 08:58:35;;;;;;;4.13;3.40;;;5.60;99.90;;;;;;4994648;28;20183;-80
2022/03/28 09:01:02;;;;;;;6.40;3.93;;;5.60;99.90;;;;;;4994308;28;20183;-79
2022/03/28 09:03:39;;;;;;;7.37;3.90;;;5.60;99.90;;;;;;4995290;28;20183;-79
2022/03/28 09:06:31;;;;;;;7.47;3.93;;;5.60;99.90;;;;;;4997605;28;20237;-80
2022/03/28 09:09:24;;;;;;;7.60;4.60;;;5.80;99.90;;;;;;4997487;28;20310;-80
2022/03/28 09:11:55;;;;;;;6.27;4.30;;;5.90;99.90;;;;;;4998370;28;20495;-80
2022/03/28 09:14:30;;;;;;;6.67;4.27;;;6.00;99.90;;;;;;4997144;28;20246;-80
2022/03/28 09:17:13;;;;;;;10.63;4.30;;;6.20;99.90;;;;;;4998238;28;20271;-80
2022/03/28 09:19:55;;;;;;;9.13;4.40;;;6.10;99.90;;;;;;4998322;28;20228;-80
2022/03/28 09:22:23;;;;;;;5.07;3.93;;;6.20;99.90;;;;;;4998302;28;20176;-80
2022/03/28 09:24:50;;;;;;;8.47;5.57;;;6.30;99.90;;;;;;4998396;28;20180;-80
2022/03/28 09:27:21;;;;;;;8.77;5.53;;;6.30;99.90;;;;;;4996985;28;20184;-79
2022/03/28 09:30:11;;;;;;;7.23;5.40;;;6.30;99.90;;;;;;4996924;28;20685;-80
2022/03/28 09:32:40;;;;;;;8.53;5.30;;;6.20;99.90;;;;;;4998123;28;20174;-80
2022/03/28 09:35:09;;;;;;;6.30;4.60;;;6.30;99.90;;;;;;4996821;28;20183;-80
2022/03/28 09:37:58;;;;;;;8.40;5.30;;;6.40;99.90;;;;;;4998112;28;20176;-79
2022/03/28 09:40:51;;;;;;;12.40;6.20;;;6.50;99.90;;;;;;4998104;28;20161;-79
2022/03/28 09:43:22;;;;;;;9.93;5.90;;;6.60;99.90;;;;;;4997976;28;20168;-79
2022/03/28 09:45:50;;;;;;;7.90;5.23;;;6.60;99.90;;;;;;4997547;28;20566;-80
2022/03/28 09:48:19;;;;;;;12.80;6.60;;;6.60;99.90;;;;;;4996462;28;20207;-79
2022/03/28 09:50:48;;;;;;;11.00;5.83;;;6.70;99.90;;;;;;4996601;28;20607;-79
2022/03/28 09:53:27;;;;;;;7.93;5.80;;;6.80;99.90;;;;;;4996577;28;20238;-78
2022/03/28 09:56:00;;;;;;;10.27;5.83;;;6.90;99.90;;;;;;4997700;28;20203;-80
2022/03/28 09:58:59;;;;;;;10.83;6.30;;;7.00;99.90;;;;;;4996437;28;20274;-79
2022/03/28 10:01:35;;;;;;;7.30;6.13;;;7.10;99.90;;;;;;4997179;28;20187;-79
2022/03/28 10:04:08;;;;;;;11.00;6.60;;;7.20;99.90;;;;;;4997475;28;20718;-80
2022/03/28 10:06:37;;;;;;;10.10;6.47;;;7.30;99.90;;;;;;4997577;28;20679;-81
2022/03/28 10:09:04;;;;;;;10.23;6.30;;;7.30;99.90;;;;;;4997293;28;20214;-81
2022/03/28 10:11:31;;;;;;;10.60;6.13;;;7.50;99.90;;;;;;4997422;28;20168;-81
2022/03/28 10:13:57;;;;;;;10.07;6.30;;;7.60;99.90;;;;;;4996148;28;20246;-81
2022/03/28 10:16:23;;;;;;;9.90;6.97;;;7.70;99.90;;;;;;4995026;28;20176;-81
2022/03/28 10:18:50;;;;;;;11.07;7.30;;;7.90;99.90;;;;;;4997006;28;20227;-81
2022/03/28 10:21:21;;;;;;;11.70;7.00;;;7.90;99.90;;;;;;4997687;28;20183;-81
2022/03/28 10:23:52;;;;;;;12.40;7.13;;;8.00;99.90;;;;;;4997377;28;20168;-81
2022/03/28 10:26:27;;;;;;;14.03;8.53;;;8.10;99.90;;;;;;4997195;28;20219;-82
2022/03/28 10:29:05;;;;;;;11.83;8.17;;;8.20;99.90;;;;;;4997007;28;20282;-81
2022/03/28 10:31:34;;;;;;;14.63;7.70;;;8.30;99.90;;;;;;4996854;28;20623;-89
2022/03/28 10:34:00;;;;;;;11.53;7.50;;;8.30;99.90;;;;;;4996301;28;20215;-85
2022/03/28 10:36:32;;;;;;;13.00;7.87;;;8.30;99.90;;;;;;4997463;28;20168;-83
2022/03/28 10:39:30;;;;;;;11.13;6.70;;;8.30;99.90;;;;;;4996062;28;20204;-83
2022/03/28 10:42:16;;;;;;;11.97;7.60;;;8.40;99.90;;;;;;4997145;28;20180;-87
2022/03/28 10:45:00;;;;;;;11.10;7.47;;;8.50;99.90;;;;;;4997116;28;20531;-84
2022/03/28 10:47:45;;;;;;;11.80;8.00;;;8.80;99.90;;;;;;4996874;28;20160;-86
2022/03/28 10:50:12;;;;;;;12.97;8.03;;;9.00;99.90;;;;;;4997010;28;20199;-83
2022/03/28 10:52:58;;;;;;;14.77;7.73;;;9.10;99.90;;;;;;4995729;28;20176;-84
2022/03/28 10:55:53;;;;;;;13.63;7.50;;;9.40;99.90;;;;;;4996896;28;20207;-82
2022/03/28 10:58:30;;;;;;;14.13;8.30;;;9.70;99.90;;;;;;4995118;28;20215;-84
2022/03/28 11:01:08;;;;;;;13.70;8.73;;;9.70;99.90;;;;;;4996606;28;20706;-85
2022/03/28 11:03:34;;;;;;;12.57;8.73;;;9.60;99.90;;;;;;4995527;28;20505;-86
2022/03/28 11:06:01;;;;;;;12.20;7.73;;;9.60;99.90;;;;;;4996726;28;20175;-84
2022/03/28 11:08:36;;;;;;;13.60;8.17;;;9.50;99.90;;;;;;4996715;28;20203;-85
2022/03/28 11:11:22;;;;;;;13.87;9.37;;;9.60;99.90;;;;;;4995521;28;20682;-86
2022/03/28 11:14:03;;;;;;;14.20;8.77;;;9.70;99.90;;;;;;4996538;28;20187;-85
2022/03/28 11:16:44;;;;;;;13.70;8.10;;;9.90;99.90;;;;;;4996076;28;20164;-82
2022/03/28 11:19:34;;;;;;;14.13;8.00;;;10.00;99.90;;;;;;4994854;28;20297;-82
2022/03/28 11:22:08;;;;;;;13.53;7.87;;;9.90;99.90;;;;;;4996167;28;20175;-82
2022/03/28 11:24:52;;;;;;;12.93;8.17;;;10.00;99.90;;;;;;4996306;28;20165;-83
2022/03/28 11:27:18;;;;;;;12.13;7.97;;;10.20;99.90;;;;;;4994845;28;20168;-83
2022/03/28 11:29:45;;;;;;;14.67;8.50;;;10.30;99.90;;;;;;4995903;28;20207;-84
2022/03/28 11:32:18;;;;;;;13.50;8.43;;;10.40;99.90;;;;;;4995736;28;20171;-85
2022/03/28 11:34:54;;;;;;;12.37;7.93;;;10.50;99.90;;;;;;4996098;28;20163;-85
2022/03/28 11:37:23;;;;;;;15.83;8.27;;;10.50;99.90;;;;;;4994799;28;20234;-82
2022/03/28 11:39:57;;;;;;;15.03;7.83;;;10.60;99.90;;;;;;4995854;28;20268;-84
2022/03/28 11:42:28;;;;;;;15.23;7.67;;;10.80;99.90;;;;;;4994732;28;20513;-83
2022/03/28 11:44:55;;;;;;;10.20;6.97;;;11.00;99.90;;;;;;4996121;28;20227;-83
2022/03/28 11:47:22;;;;;;;14.00;7.73;;;11.30;99.90;;;;;;4995445;28;20661;-82
2022/03/28 11:49:57;;;;;;;15.37;7.53;;;11.40;99.90;;;;;;4995665;28;20208;-82
2022/03/28 11:52:25;;;;;;;11.40;7.20;;;11.40;99.90;;;;;;4994379;28;20182;-84
2022/03/28 11:54:51;;;;;;;12.13;7.30;;;11.50;99.90;;;;;;4994335;28;20176;-86
2022/03/28 12:00:16;;;;;;;12.43;6.67;;;11.70;99.90;;;;;;4995552;28;20179;-81
2022/03/28 12:02:53;;;;;;;10.68;6.78;;;11.90;99.90;;;;;;4993618;28;20172;-83
2022/03/28 12:05:29;;;;;;;8.70;5.75;;;11.90;99.90;;;;;;4995487;28;20179;-83
2022/03/28 12:07:56;;;;;;;11.48;6.00;;;12.00;99.90;;;;;;4995328;28;20507;-83
2022/03/28 12:10:32;;;;;;;12.00;5.38;;;12.20;99.90;;;;;;4995203;28;20211;-83
2022/03/28 12:12:59;;;;;;;7.35;5.28;;;12.40;99.90;;;;;;4994060;28;20168;-83
2022/03/28 12:15:30;;;;;;;9.13;5.20;;;12.50;99.90;;;;;;4995104;28;20570;-84
2022/03/28 12:18:01;;;;;;;7.07;4.90;;;12.60;99.90;;;;;;4995202;28;20215;-82
2022/03/28 12:20:29;;;;;;;8.88;5.18;;;12.90;99.90;;;;;;4994090;28;20187;-83
2022/03/28 12:22:55;;;;;;;11.43;4.88;;;13.00;99.90;;;;;;4995041;28;20172;-79
2022/03/28 12:25:29;;;;;;;8.95;5.00;;;13.00;99.90;;;;;;4994088;28;20282;-81
2022/03/28 12:27:59;;;;;;;8.40;4.50;;;13.00;99.90;;;;;;4994928;28;20164;-80
2022/03/28 12:30:37;;;;;;;8.80;4.75;;;13.00;99.90;;;;;;4995387;28;20235;-82
2022/03/28 12:33:08;;;;;;;11.80;5.82;;;13.10;99.90;;;;;;4995085;28;20200;-81
2022/03/28 12:35:35;;;;;;;8.68;5.32;;;13.20;99.90;;;;;;4994058;28;20469;-83
2022/03/28 12:38:04;;;;;;;11.93;5.47;;;13.40;99.90;;;;;;4994421;28;20238;-83
2022/03/28 12:40:31;;;;;;;8.23;4.97;;;13.50;99.90;;;;;;4993578;28;20186;-83
2022/03/28 12:43:00;;;;;;;10.65;5.32;;;13.40;99.90;;;;;;4995203;28;20234;-82
2022/03/28 12:45:26;;;;;;;10.15;5.35;;;13.40;99.90;;;;;;4993689;28;20176;-83
2022/03/28 12:48:02;;;;;;;6.97;4.65;;;13.40;99.90;;;;;;4994880;28;20225;-83
2022/03/28 12:50:30;;;;;;;9.07;5.07;;;13.40;99.90;;;;;;4993335;28;20187;-80
2022/03/28 12:53:26;;;;;;;12.93;5.38;;;13.20;99.90;;;;;;4994800;28;20176;-83
2022/03/28 12:55:53;;;;;;;9.80;5.18;;;13.30;99.90;;;;;;4990782;28;20188;-84